Terminal Aerodrome Forecast
Issued by NWS

Home | Current Version | Previous Version | Text Only | Print | Product List | Glossary On
Versions: 1 2 3 4 5 6 7 8 9 10 11 12 13 14 15 16 17 18
000
FTUS42 KGSP 010554 CCA
TAFHKY
TAF COR
KHKY 010554Z 0106/0206 00000KT P6SM -RA FEW008 SCT024 OVC035
      TEMPO 0106/0110 3SM RA BR SCT008 OVC024
     FM011000 35010KT P6SM -RA OVC030
      TEMPO 0112/0116 5SM -RASN BR OVC020
     FM011600 35014G24KT P6SM OVC040
     FM020000 32014KT P6SM SCT100=

USA.gov is the U.S. government's official web portal to all federal, state and local government web resources and services.